Time;durP1;ratioP1;P1;durP2;ratioP2;P2;SDS_P1;SDS_P2;PMS_P1;PMS_P2;Temp;Humidity;BMP_temperature;BMP_pressure;BME280_temperature;BME280_humidity;BME280_pressure;Samples;Min_cycle;Max_cycle;Signal;HPM_P1;HPM_P2
2024/04/04 00:01:23;;;;;;;2.03;1.03;;;;;;;10.80;96.83;99935.75;5055585;28;20231;-79
2024/04/04 00:03:49;;;;;;;3.17;1.07;;;;;;;10.79;96.97;99939.38;5053448;28;20396;-80
2024/04/04 00:06:16;;;;;;;2.97;0.90;;;;;;;10.78;96.96;99941.19;5050244;28;20241;-80
2024/04/04 00:08:43;;;;;;;2.50;1.00;;;;;;;10.80;97.60;99938.41;5066349;28;20236;-80
2024/04/04 00:11:10;;;;;;;2.73;1.10;;;;;;;10.83;97.27;99927.53;5060819;28;20282;-80
2024/04/04 00:13:37;;;;;;;2.73;1.03;;;;;;;10.82;96.18;99939.16;5055160;28;20240;-80
2024/04/04 00:16:04;;;;;;;2.53;0.80;;;;;;;10.78;95.46;99937.66;5059476;28;20664;-80
2024/04/04 00:18:31;;;;;;;2.77;0.80;;;;;;;10.76;95.55;99935.13;5060135;28;20244;-79
2024/04/04 00:20:58;;;;;;;4.00;0.70;;;;;;;10.79;95.43;99928.72;5056904;28;20277;-80
2024/04/04 00:23:24;;;;;;;2.10;0.87;;;;;;;10.79;94.69;99939.38;5055908;28;20249;-79
2024/04/04 00:25:50;;;;;;;2.50;0.70;;;;;;;10.79;93.95;99934.03;5041730;28;20594;-80
2024/04/04 00:28:16;;;;;;;1.40;0.67;;;;;;;10.79;93.70;99944.69;5063995;28;21290;-79
2024/04/04 00:30:43;;;;;;;4.60;0.83;;;;;;;10.77;93.41;99943.97;5056509;28;20219;-80
2024/04/04 00:33:08;;;;;;;2.67;0.90;;;;;;;10.75;93.12;99937.91;5060244;28;20293;-80
2024/04/04 00:35:36;;;;;;;3.27;1.10;;;;;;;10.76;93.07;99936.94;5059773;28;20665;-80
2024/04/04 00:38:02;;;;;;;1.03;0.83;;;;;;;10.76;93.27;99944.94;5049951;28;20210;-80
2024/04/04 00:40:35;;;;;;;2.13;0.63;;;;;;;10.78;92.82;99945.66;5054108;28;20830;-80
2024/04/04 00:43:01;;;;;;;1.73;0.70;;;;;;;10.74;92.77;99946.88;5051577;28;20669;-80
2024/04/04 00:45:28;;;;;;;1.93;0.50;;;;;;;10.74;92.56;99947.72;5059889;28;20215;-80
2024/04/04 00:47:54;;;;;;;3.77;1.00;;;;;;;10.76;92.13;99948.44;5062373;28;20245;-80
2024/04/04 00:50:21;;;;;;;1.20;0.70;;;;;;;10.77;91.77;99949.28;5051970;28;20261;-80
2024/04/04 00:52:48;;;;;;;2.60;0.80;;;;;;;10.73;91.80;99950.50;5053743;28;20204;-80
2024/04/04 00:55:16;;;;;;;1.33;0.70;;;;;;;10.72;91.68;99949.66;5061786;28;20208;-80
2024/04/04 00:57:43;;;;;;;3.10;0.73;;;;;;;10.74;91.82;99952.22;5049093;28;20243;-80
2024/04/04 01:00:13;;;;;;;1.73;0.90;;;;;;;10.73;91.68;99955.84;5052179;28;20227;-80
2024/04/04 01:02:39;;;;;;;1.83;0.80;;;;;;;10.71;91.72;99941.78;5053915;28;21886;-80
2024/04/04 01:05:06;;;;;;;3.33;0.80;;;;;;;10.70;91.71;99946.25;5054956;28;20206;-80
2024/04/04 01:07:33;;;;;;;2.10;1.00;;;;;;;10.71;91.46;99941.78;5057430;28;20690;-80
2024/04/04 01:10:05;;;;;;;1.67;0.70;;;;;;;10.72;91.18;99939.00;5072638;28;20239;-80
2024/04/04 01:12:31;;;;;;;2.37;1.13;;;;;;;10.68;90.85;99942.00;5062598;28;20230;-80
2024/04/04 01:14:58;;;;;;;2.97;0.90;;;;;;;10.68;90.69;99932.19;5063313;28;20210;-80
2024/04/04 01:17:24;;;;;;;4.43;1.37;;;;;;;10.65;90.27;99937.75;5061506;28;20650;-80
2024/04/04 01:19:51;;;;;;;2.50;0.93;;;;;;;10.65;89.90;99947.56;5051013;28;20282;-79
2024/04/04 01:22:16;;;;;;;2.57;0.83;;;;;;;10.61;90.01;99938.94;5064622;28;20248;-79
2024/04/04 01:24:44;;;;;;;3.80;0.90;;;;;;;10.62;89.76;99945.97;5061205;28;20699;-79
2024/04/04 01:27:10;;;;;;;3.93;0.97;;;;;;;10.59;89.20;99940.00;5065585;28;20209;-80
2024/04/04 01:29:37;;;;;;;4.07;0.70;;;;;;;10.59;89.04;99938.19;5067232;28;20218;-80
2024/04/04 01:32:02;;;;;;;2.73;0.90;;;;;;;10.58;88.66;99946.31;5071083;28;20321;-80
2024/04/04 01:34:29;;;;;;;1.03;0.60;;;;;;;10.60;87.77;99934.56;5068337;28;20251;-80
2024/04/04 01:36:55;;;;;;;2.43;0.93;;;;;;;10.59;87.50;99943.53;5059397;28;20279;-80
2024/04/04 01:39:21;;;;;;;1.43;0.70;;;;;;;10.56;87.39;99935.78;5048499;28;20260;-79
2024/04/04 01:41:51;;;;;;;2.63;1.10;;;;;;;10.54;86.95;99937.72;5062897;28;20221;-80
2024/04/04 01:44:18;;;;;;;3.23;1.03;;;;;;;10.51;86.89;99945.94;5063815;28;20247;-80
2024/04/04 01:46:43;;;;;;;2.00;0.87;;;;;;;10.50;86.70;99946.88;5052943;28;20238;-80
2024/04/04 01:49:10;;;;;;;2.03;0.80;;;;;;;10.48;86.44;99940.81;5057197;28;20224;-80
2024/04/04 01:51:36;;;;;;;3.20;0.90;;;;;;;10.48;86.47;99943.50;5053013;28;20280;-80
2024/04/04 01:54:02;;;;;;;2.17;1.00;;;;;;;10.46;86.29;99933.91;5054632;28;20635;-80
2024/04/04 01:56:28;;;;;;;2.40;0.93;;;;;;;10.39;86.39;99937.00;5053249;28;20581;-80
2024/04/04 01:58:56;;;;;;;3.63;0.80;;;;;;;10.36;86.51;99941.75;5055442;28;20236;-80
2024/04/04 02:01:22;;;;;;;1.50;0.67;;;;;;;10.35;86.42;99942.69;5062472;28;20234;-80
2024/04/04 02:03:48;;;;;;;1.93;0.87;;;;;;;10.32;86.55;99946.44;5060025;28;20201;-80
2024/04/04 02:06:14;;;;;;;1.27;0.90;;;;;;;10.29;86.57;99949.31;5060158;28;20301;-80
2024/04/04 02:08:41;;;;;;;4.67;0.90;;;;;;;10.29;86.46;99946.66;5055586;28;20667;-80
2024/04/04 02:11:06;;;;;;;3.03;0.80;;;;;;;10.29;86.29;99946.66;5058060;28;20262;-80
2024/04/04 02:13:33;;;;;;;1.13;0.80;;;;;;;10.27;86.28;99945.91;5060694;28;20207;-80
2024/04/04 02:16:00;;;;;;;1.60;1.10;;;;;;;10.26;86.33;99957.53;5057709;28;20311;-80
2024/04/04 02:18:27;;;;;;;2.07;0.70;;;;;;;10.22;86.62;99953.38;5059458;28;20212;-80
2024/04/04 02:20:52;;;;;;;2.23;1.00;;;;;;;10.23;86.53;99963.06;5061590;28;20246;-80
2024/04/04 02:23:19;;;;;;;2.47;0.90;;;;;;;10.20;86.62;99954.47;5063785;28;20214;-80
2024/04/04 02:25:45;;;;;;;1.83;0.90;;;;;;;10.16;86.65;99953.81;5055250;28;20261;-80
2024/04/04 02:28:11;;;;;;;4.53;1.37;;;;;;;10.13;86.50;99956.69;5053949;28;20207;-80
2024/04/04 02:30:37;;;;;;;2.50;0.80;;;;;;;10.11;86.52;99947.97;5058452;28;20249;-80
2024/04/04 02:33:06;;;;;;;3.23;0.97;;;;;;;10.10;86.67;99947.09;5058927;28;20221;-80
2024/04/04 02:35:32;;;;;;;4.07;0.90;;;;;;;10.08;86.37;99942.84;5061180;28;20670;-80
2024/04/04 02:37:59;;;;;;;3.83;1.33;;;;;;;10.06;87.11;99945.63;5059168;28;20212;-80
2024/04/04 02:40:24;;;;;;;2.00;0.63;;;;;;;10.07;86.69;99942.00;5054352;28;20222;-80
2024/04/04 02:42:52;;;;;;;2.70;0.80;;;;;;;10.05;87.05;99938.59;5055955;28;20254;-80
2024/04/04 02:45:18;;;;;;;4.17;1.67;;;;;;;10.03;87.00;99945.84;5057807;28;20556;-80
2024/04/04 02:47:45;;;;;;;2.77;0.60;;;;;;;10.03;87.23;99940.53;5062838;28;20198;-80
2024/04/04 02:50:14;;;;;;;3.10;0.70;;;;;;;10.01;86.97;99945.13;5062001;28;20328;-80
2024/04/04 02:52:44;;;;;;;3.73;0.70;;;;;;;9.98;87.17;99939.19;5057760;28;20209;-80
2024/04/04 02:55:09;;;;;;;1.87;0.73;;;;;;;9.96;87.28;99946.41;5051718;28;20211;-80
2024/04/04 02:57:38;;;;;;;4.67;1.50;;;;;;;9.90;87.33;99945.03;5059252;28;20208;-80
2024/04/04 03:00:08;;;;;;;2.50;0.93;;;;;;;9.88;87.61;99931.00;5060117;28;20258;-79
2024/04/04 03:02:37;;;;;;;2.90;0.80;;;;;;;9.87;87.37;99931.94;5052183;28;20617;-80
2024/04/04 03:05:04;;;;;;;3.27;1.10;;;;;;;9.83;87.63;99938.47;5064305;28;20209;-80
2024/04/04 03:07:32;;;;;;;2.20;0.57;;;;;;;9.80;87.06;99938.69;5063260;28;20287;-80
2024/04/04 03:09:57;;;;;;;6.73;1.00;;;;;;;9.79;87.48;99936.97;5057152;28;20256;-80
2024/04/04 03:12:24;;;;;;;4.50;0.80;;;;;;;9.74;87.44;99939.09;5063414;28;20202;-80
2024/04/04 03:14:50;;;;;;;3.17;0.60;;;;;;;9.71;87.44;99924.22;5050395;28;20250;-80
2024/04/04 03:17:16;;;;;;;2.47;0.70;;;;;;;9.69;87.48;99935.91;5054231;28;20213;-80
2024/04/04 03:19:42;;;;;;;3.17;0.90;;;;;;;9.68;87.46;99936.88;5060203;28;20253;-80
2024/04/04 03:22:11;;;;;;;3.53;0.90;;;;;;;9.65;87.39;99943.28;5057585;28;20236;-79
2024/04/04 03:24:43;;;;;;;2.43;0.60;;;;;;;9.63;87.71;99939.03;5057190;28;20238;-80
2024/04/04 03:27:25;;;;;;;;;;;;;;;;;;;;;
2024/04/04 03:29:51;;;;;;;3.63;0.60;;;;;;;9.56;87.33;99938.59;5064109;28;20224;-80
2024/04/04 03:32:18;;;;;;;4.20;0.80;;;;;;;9.54;87.05;99948.50;5052985;28;20581;-80
2024/04/04 03:34:46;;;;;;;4.30;0.83;;;;;;;9.52;87.52;99946.91;5058287;28;20648;-80
2024/04/04 03:37:14;;;;;;;3.90;0.60;;;;;;;9.50;86.93;99933.72;5059015;28;20199;-80
2024/04/04 03:39:42;;;;;;;2.33;0.50;;;;;;;9.51;86.76;99935.41;5058608;28;20245;-80
2024/04/04 03:42:08;;;;;;;3.67;0.70;;;;;;;9.48;87.02;99933.00;5049479;28;20245;-80
2024/04/04 03:44:34;;;;;;;3.37;0.73;;;;;;;9.50;87.35;99930.19;5055610;28;20237;-80
2024/04/04 03:47:00;;;;;;;3.63;0.73;;;;;;;9.47;86.97;99914.50;5059627;28;20230;-80
2024/04/04 03:49:26;;;;;;;4.27;0.80;;;;;;;9.47;86.14;99920.66;5062708;28;20271;-80
2024/04/04 03:51:53;;;;;;;2.20;0.97;;;;;;;9.45;86.04;99911.09;5056095;28;20206;-80
2024/04/04 03:54:21;;;;;;;3.73;0.90;;;;;;;9.44;86.09;99920.03;5057598;28;20228;-80
2024/04/04 03:56:49;;;;;;;3.07;0.80;;;;;;;9.43;85.99;99921.81;5059668;28;20586;-80
2024/04/04 03:59:15;;;;;;;2.70;0.60;;;;;;;9.39;86.25;99920.34;5056371;28;20265;-80
2024/04/04 04:01:42;;;;;;;3.07;0.60;;;;;;;9.37;85.93;99922.25;5063219;28;20261;-80
2024/04/04 04:04:07;;;;;;;2.77;1.33;;;;;;;9.39;85.54;99918.53;5060142;28;20205;-80
2024/04/04 04:06:34;;;;;;;3.73;0.73;;;;;;;9.40;85.62;99919.38;5057928;28;20742;-80
2024/04/04 04:09:00;;;;;;;2.57;0.60;;;;;;;9.39;85.76;99917.69;5057220;28;20231;-80
2024/04/04 04:11:26;;;;;;;3.80;0.70;;;;;;;9.35;86.11;99916.19;5053207;28;20209;-80
2024/04/04 04:13:53;;;;;;;3.20;0.60;;;;;;;9.32;85.74;99919.91;5053269;28;20228;-80
2024/04/04 04:16:20;;;;;;;1.77;0.90;;;;;;;9.29;86.17;99921.94;5053200;28;20209;-80
2024/04/04 04:18:48;;;;;;;3.53;1.10;;;;;;;9.27;86.23;99919.41;5061348;28;20627;-80
2024/04/04 04:21:20;;;;;;;1.50;0.80;;;;;;;9.25;86.44;99928.41;5063256;28;20294;-80
2024/04/04 04:23:50;;;;;;;2.17;0.60;;;;;;;9.22;85.97;99925.97;5065429;28;20238;-80
2024/04/04 04:26:17;;;;;;;2.80;0.53;;;;;;;9.19;86.18;99920.88;5059956;28;20205;-80
2024/04/04 04:28:43;;;;;;;3.30;0.90;;;;;;;9.20;86.02;99918.09;5060245;28;20202;-80
2024/04/04 04:31:25;;;;;;;2.87;1.10;;;;;;;9.19;85.88;99920.88;5045443;28;20275;-80
2024/04/04 04:33:51;;;;;;;3.27;0.97;;;;;;;9.19;86.20;99910.25;5048563;28;20220;-80
2024/04/04 04:36:17;;;;;;;2.30;0.73;;;;;;;9.17;86.28;99915.66;5058702;28;20707;-80
2024/04/04 04:38:43;;;;;;;2.20;0.83;;;;;;;9.19;86.71;99918.22;5052175;28;20297;-80
2024/04/04 04:41:10;;;;;;;3.53;1.27;;;;;;;9.13;86.50;99918.66;5063928;28;20640;-80
2024/04/04 04:43:35;;;;;;;7.03;2.00;;;;;;;9.11;86.87;99913.44;5056558;28;20795;-79
2024/04/04 04:46:02;;;;;;;1.73;0.90;;;;;;;9.07;87.10;99916.41;5056031;28;20217;-80
2024/04/04 04:48:29;;;;;;;3.30;0.77;;;;;;;9.05;87.12;99913.84;5053816;28;20285;-80
2024/04/04 04:50:55;;;;;;;0.80;0.53;;;;;;;9.05;87.44;99912.06;5050402;28;20241;-80
2024/04/04 04:53:21;;;;;;;4.67;0.83;;;;;;;9.05;87.22;99913.84;5059180;28;20314;-80
2024/04/04 04:55:48;;;;;;;4.47;0.80;;;;;;;9.02;87.32;99908.75;5058634;28;20234;-79
2024/04/04 04:58:14;;;;;;;2.77;0.60;;;;;;;8.99;87.66;99896.53;5056403;28;20229;-79
2024/04/04 05:00:40;;;;;;;1.83;0.90;;;;;;;8.99;87.69;99895.69;5050967;28;20792;-80
2024/04/04 05:03:06;;;;;;;5.77;0.90;;;;;;;9.01;87.96;99897.28;5058090;28;20697;-79
2024/04/04 05:05:35;;;;;;;1.07;0.73;;;;;;;9.00;88.14;99895.56;5051886;28;20213;-80
2024/04/04 05:08:02;;;;;;;4.03;0.77;;;;;;;9.01;87.92;99894.63;5056899;28;20223;-80
2024/04/04 05:10:29;;;;;;;4.27;0.60;;;;;;;9.00;87.88;99892.91;5062242;28;20221;-80
2024/04/04 05:12:55;;;;;;;2.93;0.63;;;;;;;9.02;87.70;99891.00;5052726;28;20230;-79
2024/04/04 05:15:22;;;;;;;2.83;0.80;;;;;;;9.05;88.26;99893.47;5061821;28;20232;-81
2024/04/04 05:17:48;;;;;;;4.07;1.07;;;;;;;9.05;87.64;99895.25;5064924;28;20205;-79
2024/04/04 05:20:14;;;;;;;3.40;0.77;;;;;;;9.13;87.51;99894.75;5062773;28;20259;-81
2024/04/04 05:22:42;;;;;;;3.20;1.20;;;;;;;9.13;87.79;99890.28;5054975;28;20241;-81
2024/04/04 05:25:13;;;;;;;3.17;0.87;;;;;;;9.14;88.02;99881.31;5052783;28;20236;-81
2024/04/04 05:27:40;;;;;;;4.37;0.93;;;;;;;9.17;87.42;99882.94;5056599;28;20210;-81
2024/04/04 05:30:10;;;;;;;3.60;0.70;;;;;;;9.22;87.32;99891.44;5048686;28;20563;-80
2024/04/04 05:32:37;;;;;;;2.97;0.73;;;;;;;9.29;87.20;99896.22;5053084;28;20202;-81
2024/04/04 05:35:03;;;;;;;6.87;0.90;;;;;;;9.34;86.58;99896.72;5051833;28;20299;-81
2024/04/04 05:37:30;;;;;;;2.33;1.13;;;;;;;9.35;86.76;99900.25;5055012;28;20593;-79
2024/04/04 05:39:57;;;;;;;2.87;0.67;;;;;;;9.39;87.53;99891.09;5054467;28;20248;-81
2024/04/04 05:42:24;;;;;;;2.77;0.90;;;;;;;9.43;87.27;99903.22;5056790;28;20228;-81
2024/04/04 05:44:50;;;;;;;2.93;1.13;;;;;;;9.49;87.11;99896.63;5061957;28;20211;-81
2024/04/04 05:47:16;;;;;;;3.17;0.80;;;;;;;9.50;86.90;99880.53;5060485;28;20659;-81
2024/04/04 05:49:42;;;;;;;5.03;0.70;;;;;;;9.54;86.34;99897.13;5063893;28;20259;-82
2024/04/04 05:52:08;;;;;;;1.37;0.73;;;;;;;9.54;86.56;99894.47;5061679;28;20217;-81
2024/04/04 05:54:36;;;;;;;2.07;0.77;;;;;;;9.56;86.63;99898.72;5059401;28;20723;-82
2024/04/04 05:57:05;;;;;;;3.13;0.93;;;;;;;9.58;86.76;99891.50;5064345;28;20200;-82
2024/04/04 05:59:30;;;;;;;2.60;0.70;;;;;;;9.60;87.33;99884.28;5067574;28;20221;-80
2024/04/04 06:01:57;;;;;;;3.50;0.93;;;;;;;9.64;88.22;99884.91;5056805;28;20299;-80
2024/04/04 06:04:23;;;;;;;2.40;1.33;;;;;;;9.72;89.92;99882.53;5067500;28;20705;-80
2024/04/04 06:06:49;;;;;;;3.53;0.70;;;;;;;9.73;90.94;99876.25;5064131;28;20240;-81
2024/04/04 06:09:15;;;;;;;3.23;0.93;;;;;;;9.74;90.60;99873.47;5048720;28;20270;-83
2024/04/04 06:11:41;;;;;;;2.47;0.80;;;;;;;9.76;91.87;99878.69;5074913;28;20197;-82
2024/04/04 06:14:08;;;;;;;3.23;1.10;;;;;;;9.74;92.03;99873.47;5074750;28;20303;-82
2024/04/04 06:16:35;;;;;;;2.03;0.80;;;;;;;9.79;92.39;99867.00;5074253;28;20236;-83
2024/04/04 06:19:01;;;;;;;2.63;1.10;;;;;;;9.80;92.32;99868.69;5074193;28;20308;-82
2024/04/04 06:21:27;;;;;;;2.60;1.00;;;;;;;9.78;92.83;99876.78;5073863;28;20309;-81
2024/04/04 06:23:53;;;;;;;3.73;0.73;;;;;;;9.78;93.26;99875.94;5065464;28;20235;-83
2024/04/04 06:26:21;;;;;;;2.87;0.93;;;;;;;9.75;92.92;99864.56;5054505;28;20236;-81
2024/04/04 06:28:47;;;;;;;3.60;0.90;;;;;;;9.75;93.60;99861.03;5053592;28;20214;-82
2024/04/04 06:31:15;;;;;;;2.70;0.77;;;;;;;9.78;94.01;99854.66;5073845;28;20206;-83
2024/04/04 06:33:41;;;;;;;2.07;0.97;;;;;;;9.80;94.29;99847.41;5075997;28;20208;-83
2024/04/04 06:36:08;;;;;;;2.67;0.90;;;;;;;9.81;94.46;99846.47;5076054;28;20208;-82
2024/04/04 06:38:33;;;;;;;2.10;0.80;;;;;;;9.83;94.79;99857.84;5075124;28;20740;-82
2024/04/04 06:41:00;;;;;;;3.33;0.80;;;;;;;9.84;95.20;99856.88;5075256;28;20242;-82
2024/04/04 06:43:25;;;;;;;3.70;0.90;;;;;;;9.91;95.90;99863.44;5075147;28;20264;-82
2024/04/04 06:45:52;;;;;;;6.23;1.30;;;;;;;9.92;95.72;99847.38;5075684;28;20220;-83
2024/04/04 06:48:22;;;;;;;1.63;0.73;;;;;;;9.95;94.99;99843.63;5074730;28;20230;-82
2024/04/04 06:50:48;;;;;;;2.63;0.80;;;;;;;9.95;95.25;99841.81;5035222;28;1138017;-83
2024/04/04 06:53:14;;;;;;;2.07;0.73;;;;;;;9.97;95.45;99834.59;5063928;28;20227;-82
2024/04/04 06:55:41;;;;;;;3.13;1.27;;;;;;;10.00;95.39;99834.38;5069974;28;20214;-83
2024/04/04 06:58:06;;;;;;;1.83;0.70;;;;;;;10.04;94.60;99837.63;5075256;28;20236;-83
2024/04/04 07:00:33;;;;;;;1.63;0.53;;;;;;;10.06;94.52;99838.34;5055721;28;20219;-83
2024/04/04 07:02:59;;;;;;;3.97;0.70;;;;;;;10.08;94.21;99847.06;5053698;28;20736;-83
2024/04/04 07:05:27;;;;;;;3.43;1.00;;;;;;;10.09;93.73;99838.13;5054716;28;20215;-83
2024/04/04 07:07:52;;;;;;;1.37;0.60;;;;;;;10.12;93.78;99839.72;5055583;28;20629;-83
2024/04/04 07:10:19;;;;;;;3.70;0.77;;;;;;;10.17;94.10;99835.78;5055516;28;20237;-82
2024/04/04 07:12:45;;;;;;;2.80;0.80;;;;;;;10.21;94.23;99831.09;5055633;28;20233;-83
2024/04/04 07:15:11;;;;;;;3.60;1.03;;;;;;;10.26;94.96;99834.25;5055252;28;20244;-84
2024/04/04 07:17:38;;;;;;;2.10;0.70;;;;;;;10.27;94.68;99826.16;5055505;28;20301;-82
2024/04/04 07:20:06;;;;;;;1.30;0.67;;;;;;;10.30;94.39;99830.41;5057938;28;20313;-83
2024/04/04 07:22:35;;;;;;;2.07;0.80;;;;;;;10.33;94.51;99820.38;5045533;28;20240;-83
2024/04/04 07:25:02;;;;;;;1.33;0.60;;;;;;;10.35;94.73;99818.44;5056122;28;20209;-84
2024/04/04 07:27:27;;;;;;;1.57;0.60;;;;;;;10.44;96.77;99815.09;5036526;28;20226;-83
2024/04/04 07:29:55;;;;;;;1.67;0.80;;;;;;;10.46;97.52;99816.78;5035073;28;20232;-83
2024/04/04 07:32:21;;;;;;;2.33;0.70;;;;;;;10.52;98.42;99808.34;5036083;28;20200;-84
2024/04/04 07:34:47;;;;;;;4.10;0.67;;;;;;;10.60;99.24;99804.09;5035180;28;20206;-84
2024/04/04 07:37:13;;;;;;;1.33;0.77;;;;;;;10.66;98.77;99800.13;5051787;28;20300;-84
2024/04/04 07:39:41;;;;;;;1.20;0.70;;;;;;;10.66;99.51;99793.00;5048607;28;20278;-83
2024/04/04 07:42:09;;;;;;;2.47;0.70;;;;;;;10.70;99.45;99788.28;5055350;28;20321;-83
2024/04/04 07:44:38;;;;;;;2.23;0.77;;;;;;;10.76;100.00;99785.97;5054636;28;20206;-84
2024/04/04 07:47:04;;;;;;;2.67;0.80;;;;;;;10.72;99.75;99776.56;5055490;28;20217;-83
2024/04/04 07:49:30;;;;;;;1.73;0.70;;;;;;;10.81;99.53;99774.13;5035111;28;20218;-84
2024/04/04 07:51:56;;;;;;;2.00;1.47;;;;;;;10.81;100.00;99766.97;5046459;28;20240;-84
2024/04/04 07:54:25;;;;;;;2.73;0.50;;;;;;;10.85;100.00;99764.94;5055162;28;20205;-84
2024/04/04 07:56:52;;;;;;;1.43;0.57;;;;;;;10.86;100.00;99762.16;5054493;28;20198;-84
2024/04/04 07:59:19;;;;;;;2.23;0.70;;;;;;;10.93;100.00;99754.50;5054625;28;20824;-83
2024/04/04 08:01:45;;;;;;;1.63;0.50;;;;;;;10.92;100.00;99758.16;5055331;28;20302;-83
2024/04/04 08:04:11;;;;;;;0.70;0.60;;;;;;;10.99;100.00;99744.22;5054362;28;20730;-82
2024/04/04 08:06:37;;;;;;;2.10;0.70;;;;;;;10.99;100.00;99748.69;5053976;28;20236;-82
2024/04/04 08:09:06;;;;;;;1.70;0.70;;;;;;;10.98;100.00;99745.19;5052916;28;20260;-83
2024/04/04 08:11:32;;;;;;;3.73;1.00;;;;;;;10.98;100.00;99739.84;5054532;28;20225;-81
2024/04/04 08:14:01;;;;;;;1.23;0.70;;;;;;;11.01;100.00;99733.44;5073899;28;20245;-82
2024/04/04 08:16:27;;;;;;;0.73;0.57;;;;;;;11.00;100.00;99737.06;5073193;28;20207;-83
2024/04/04 08:18:53;;;;;;;0.80;0.63;;;;;;;11.01;100.00;99726.28;5057864;28;20204;-81
2024/04/04 08:21:19;;;;;;;0.83;0.50;;;;;;;11.01;100.00;99723.63;5032664;28;20249;-82
2024/04/04 08:23:45;;;;;;;1.30;0.50;;;;;;;11.06;100.00;99718.78;5038091;28;20251;-81
2024/04/04 08:26:12;;;;;;;2.30;0.60;;;;;;;11.02;100.00;99721.81;5052716;28;20705;-81
2024/04/04 08:28:38;;;;;;;0.73;0.70;;;;;;;11.06;100.00;99713.47;5053055;28;20327;-82
2024/04/04 08:31:07;;;;;;;1.00;0.70;;;;;;;11.08;100.00;99710.69;5052235;28;20261;-82
2024/04/04 08:33:33;;;;;;;2.47;1.03;;;;;;;11.10;100.00;99722.91;5052633;28;20206;-82
2024/04/04 08:36:01;;;;;;;1.97;0.70;;;;;;;11.08;100.00;99711.53;5052314;28;20245;-82
2024/04/04 08:38:27;;;;;;;1.80;0.90;;;;;;;11.14;100.00;99707.50;5052525;28;20629;-82
2024/04/04 08:40:58;;;;;;;1.23;0.70;;;;;;;11.18;100.00;99716.94;5053098;28;20230;-82
2024/04/04 08:43:24;;;;;;;1.87;0.80;;;;;;;11.19;100.00;99712.47;5053974;28;20210;-81
2024/04/04 08:45:52;;;;;;;2.27;0.90;;;;;;;11.22;100.00;99709.56;5055740;28;20298;-81
2024/04/04 08:48:20;;;;;;;1.83;0.93;;;;;;;11.22;100.00;99707.75;5058075;28;20224;-81
2024/04/04 08:50:48;;;;;;;1.50;0.80;;;;;;;11.22;100.00;99709.56;5050394;28;20755;-80
2024/04/04 08:53:14;;;;;;;3.23;1.03;;;;;;;11.24;100.00;99705.81;5067012;28;20189;-79
2024/04/04 08:55:41;;;;;;;1.93;1.00;;;;;;;11.24;100.00;99703.13;5075237;28;20211;-80
2024/04/04 08:58:11;;;;;;;2.77;1.20;;;;;;;11.23;100.00;99697.94;5067462;28;20906;-79
2024/04/04 09:00:38;;;;;;;5.67;2.27;;;;;;;11.28;100.00;99690.41;5062767;28;20228;-79
2024/04/04 09:03:04;;;;;;;2.93;1.30;;;;;;;11.28;100.00;99685.94;5071810;28;20339;-79
2024/04/04 09:05:32;;;;;;;2.37;1.07;;;;;;;11.29;100.00;99692.91;5066380;28;20212;-79
2024/04/04 09:07:58;;;;;;;0.90;0.80;;;;;;;11.28;100.00;99685.09;5063808;28;20259;-79
2024/04/04 09:10:24;;;;;;;1.93;1.60;;;;;;;11.33;100.00;99682.88;5056633;28;20228;-79
2024/04/04 09:12:59;;;;;;;2.00;1.20;;;;;;;11.35;100.00;99681.78;5053026;28;20236;-78
2024/04/04 09:15:27;;;;;;;2.43;1.30;;;;;;;11.39;100.00;99674.38;5050285;28;20228;-78
2024/04/04 09:17:53;;;;;;;3.67;1.67;;;;;;;11.43;100.00;99671.34;5059347;28;20203;-78
2024/04/04 09:20:20;;;;;;;3.67;1.47;;;;;;;11.47;100.00;99674.56;5054810;28;20234;-78
2024/04/04 09:22:47;;;;;;;2.23;1.83;;;;;;;11.43;100.00;99667.81;5056209;28;20700;-78
2024/04/04 09:25:15;;;;;;;1.50;1.00;;;;;;;11.46;100.00;99678.25;5053594;28;20210;-78
2024/04/04 09:27:41;;;;;;;2.80;1.73;;;;;;;11.52;100.00;99666.19;5058673;28;20202;-78
2024/04/04 09:30:12;;;;;;;3.40;2.00;;;;;;;11.56;100.00;99679.16;5054983;28;20232;-78
2024/04/04 09:32:38;;;;;;;2.00;1.27;;;;;;;11.61;100.00;99671.63;5055956;28;20233;-77
2024/04/04 09:35:08;;;;;;;3.77;2.23;;;;;;;11.68;100.00;99666.63;5057423;28;20315;-77
2024/04/04 09:37:34;;;;;;;2.20;1.63;;;;;;;11.69;100.00;99661.16;5053614;28;20217;-77
2024/04/04 09:40:05;;;;;;;2.80;1.63;;;;;;;11.78;100.00;99654.25;5054774;28;20228;-77
2024/04/04 09:42:30;;;;;;;2.33;1.13;;;;;;;11.86;100.00;99656.25;5051936;28;20217;-77
2024/04/04 09:44:59;;;;;;;1.60;1.10;;;;;;;11.93;100.00;99649.44;5051410;28;20216;-77
2024/04/04 09:47:26;;;;;;;2.00;1.07;;;;;;;11.98;100.00;99642.75;5050325;28;20210;-77
2024/04/04 09:49:58;;;;;;;2.37;1.10;;;;;;;12.06;100.00;99637.59;5059607;28;20216;-77
2024/04/04 09:52:27;;;;;;;3.80;1.53;;;;;;;12.13;100.00;99640.59;5051913;28;20217;-77
2024/04/04 09:54:55;;;;;;;3.83;1.43;;;;;;;12.20;100.00;99639.06;5047725;28;20201;-77
2024/04/04 09:57:22;;;;;;;3.20;1.30;;;;;;;12.25;100.00;99639.53;5054240;28;20209;-77
2024/04/04 10:00:13;;;;;;;2.40;0.97;;;;;;;12.28;100.00;99633.91;5051473;28;20222;-77
2024/04/04 10:02:43;;;;;;;1.13;0.90;;;;;;;12.25;100.00;99631.50;5049141;28;20218;-77
2024/04/04 10:05:18;;;;;;;4.47;1.97;;;;;;;12.30;100.00;99626.63;5052566;28;20213;-77
2024/04/04 10:07:44;;;;;;;4.07;1.20;;;;;;;12.30;100.00;99615.94;5044428;28;20202;-77
2024/04/04 10:10:15;;;;;;;2.17;1.23;;;;;;;12.30;100.00;99618.63;5045947;28;20368;-77
2024/04/04 10:12:44;;;;;;;1.77;1.00;;;;;;;12.34;100.00;99608.53;5053698;28;20284;-77
2024/04/04 10:15:16;;;;;;;1.33;1.10;;;;;;;12.38;100.00;99617.94;5058136;28;20713;-77
2024/04/04 10:17:44;;;;;;;1.00;0.90;;;;;;;12.42;100.00;99601.53;5054495;28;20281;-77
2024/04/04 10:20:12;;;;;;;1.67;0.97;;;;;;;12.42;100.00;99620.22;5056691;28;20713;-77
2024/04/04 10:22:38;;;;;;;2.97;1.47;;;;;;;12.45;100.00;99609.28;5053588;28;20242;-77
2024/04/04 10:25:06;;;;;;;2.03;0.90;;;;;;;12.48;100.00;99614.34;5052415;28;20260;-80
2024/04/04 10:27:32;;;;;;;1.33;1.00;;;;;;;12.51;100.00;99608.75;5052461;28;20295;-77
2024/04/04 10:30:04;;;;;;;3.33;1.13;;;;;;;12.61;100.00;99597.22;5055891;28;20268;-77
2024/04/04 10:32:29;;;;;;;3.13;1.37;;;;;;;12.63;100.00;99584.59;5054434;28;20193;-78
2024/04/04 10:35:05;;;;;;;2.20;0.97;;;;;;;12.66;100.00;99584.31;5056389;28;20216;-78
2024/04/04 10:37:32;;;;;;;1.03;0.90;;;;;;;12.75;100.00;99583.50;5053999;28;20293;-77
2024/04/04 10:39:58;;;;;;;1.57;1.20;;;;;;;12.76;100.00;99577.16;5056083;28;21196;-77
2024/04/04 10:42:25;;;;;;;1.10;0.90;;;;;;;12.81;100.00;99572.25;5046716;28;20226;-77
2024/04/04 10:44:53;;;;;;;1.80;1.10;;;;;;;12.88;100.00;99570.75;5050477;28;20209;-78
2024/04/04 10:47:21;;;;;;;1.50;0.90;;;;;;;12.94;100.00;99566.66;5064936;28;20206;-77
2024/04/04 10:49:48;;;;;;;1.80;1.00;;;;;;;12.99;100.00;99564.41;5052659;28;20249;-78
2024/04/04 10:52:15;;;;;;;1.97;1.07;;;;;;;13.01;100.00;99571.31;5043735;28;20224;-77
2024/04/04 11:14:27;;;;;;;1.23;0.50;;;;;;;13.03;100.00;99561.34;4940652;28;20224;-77
2024/04/04 11:16:54;;;;;;;0.53;0.37;;;;;;;13.04;100.00;99559.50;4996236;28;20345;-77
2024/04/04 11:19:22;;;;;;;0.77;0.60;;;;;;;13.01;100.00;99573.16;5018805;28;20229;-77
2024/04/04 11:21:48;;;;;;;1.20;0.60;;;;;;;12.99;100.00;99583.97;5053941;28;20256;-78
2024/04/04 11:24:15;;;;;;;0.63;0.53;;;;;;;13.00;100.00;99585.66;5046371;28;20317;-79
2024/04/04 11:26:42;;;;;;;0.60;0.50;;;;;;;12.99;100.00;99597.34;5053915;28;20358;-79
2024/04/04 11:29:09;;;;;;;0.70;0.50;;;;;;;13.01;100.00;99603.41;5060851;28;20305;-79
2024/04/04 11:31:35;;;;;;;1.90;0.40;;;;;;;13.01;100.00;99608.75;5054039;28;20295;-79
2024/04/04 11:34:02;;;;;;;0.97;0.40;;;;;;;13.03;100.00;99611.28;5057099;28;20238;-79
2024/04/04 11:36:28;;;;;;;0.63;0.50;;;;;;;13.03;100.00;99630.84;5057221;28;20244;-79
2024/04/04 11:38:56;;;;;;;0.77;0.40;;;;;;;13.06;100.00;99632.38;5049648;28;20205;-79
2024/04/04 11:41:22;;;;;;;0.80;0.40;;;;;;;13.06;100.00;99625.22;5061410;28;20219;-79
2024/04/04 11:43:50;;;;;;;0.40;0.40;;;;;;;13.00;99.57;99631.09;5056641;28;20313;-79
2024/04/04 11:46:17;;;;;;;0.20;0.20;;;;;;;13.00;98.93;99619.56;5054044;28;20244;-79
2024/04/04 11:48:44;;;;;;;1.00;0.30;;;;;;;13.02;99.32;99628.28;5053020;28;20197;-80
2024/04/04 11:51:09;;;;;;;0.73;0.30;;;;;;;13.08;98.21;99633.06;5048900;28;20282;-79
2024/04/04 11:53:36;;;;;;;1.27;0.30;;;;;;;13.13;97.98;99633.50;5060122;28;20293;-79